sensor_id;sensor_type;location;lat;lon;timestamp;temperature;humidity
43143;DHT22;28750;59.842;17.584;2022-08-18T00:01:16;16.50;99.90
43143;DHT22;28750;59.842;17.584;2022-08-18T00:03:44;16.50;99.90
43143;DHT22;28750;59.842;17.584;2022-08-18T00:06:11;16.50;99.90
43143;DHT22;28750;59.842;17.584;2022-08-18T00:08:38;16.50;99.90
43143;DHT22;28750;59.842;17.584;2022-08-18T00:11:05;16.60;99.90
43143;DHT22;28750;59.842;17.584;2022-08-18T00:13:33;16.60;99.90
43143;DHT22;28750;59.842;17.584;2022-08-18T00:16:01;16.60;99.90
43143;DHT22;28750;59.842;17.584;2022-08-18T00:18:28;16.50;99.90
43143;DHT22;28750;59.842;17.584;2022-08-18T00:20:55;16.20;99.90
43143;DHT22;28750;59.842;17.584;2022-08-18T00:23:22;16.00;99.90
43143;DHT22;28750;59.842;17.584;2022-08-18T00:25:48;15.90;99.90
43143;DHT22;28750;59.842;17.584;2022-08-18T00:28:15;16.00;99.90
43143;DHT22;28750;59.842;17.584;2022-08-18T00:30:43;16.10;99.90
43143;DHT22;28750;59.842;17.584;2022-08-18T00:33:10;16.20;99.90
43143;DHT22;28750;59.842;17.584;2022-08-18T00:35:37;16.30;99.90
43143;DHT22;28750;59.842;17.584;2022-08-18T00:38:07;16.10;99.90
43143;DHT22;28750;59.842;17.584;2022-08-18T00:40:43;15.90;99.90
43143;DHT22;28750;59.842;17.584;2022-08-18T00:43:49;15.80;99.90
43143;DHT22;28750;59.842;17.584;2022-08-18T00:46:24;15.90;99.90
43143;DHT22;28750;59.842;17.584;2022-08-18T00:48:53;15.80;99.90
43143;DHT22;28750;59.842;17.584;2022-08-18T00:51:40;15.80;99.90
43143;DHT22;28750;59.842;17.584;2022-08-18T00:54:22;15.60;99.90
43143;DHT22;28750;59.842;17.584;2022-08-18T00:56:53;15.70;99.90
43143;DHT22;28750;59.842;17.584;2022-08-18T01:00:30;15.70;99.90
43143;DHT22;28750;59.842;17.584;2022-08-18T01:02:34;15.80;99.90
43143;DHT22;28750;59.842;17.584;2022-08-18T01:05:27;15.80;99.90
43143;DHT22;28750;59.842;17.584;2022-08-18T01:07:58;15.90;99.90
43143;DHT22;28750;59.842;17.584;2022-08-18T01:10:25;15.80;99.90
43143;DHT22;28750;59.842;17.584;2022-08-18T01:12:56;15.70;99.90
43143;DHT22;28750;59.842;17.584;2022-08-18T01:15:24;15.50;99.90
43143;DHT22;28750;59.842;17.584;2022-08-18T01:17:52;15.50;99.90
43143;DHT22;28750;59.842;17.584;2022-08-18T01:20:49;15.60;99.90
43143;DHT22;28750;59.842;17.584;2022-08-18T01:23:41;15.70;99.90
43143;DHT22;28750;59.842;17.584;2022-08-18T01:26:08;15.60;99.90
43143;DHT22;28750;59.842;17.584;2022-08-18T01:28:41;15.60;99.90
43143;DHT22;28750;59.842;17.584;2022-08-18T01:31:09;15.50;99.90
43143;DHT22;28750;59.842;17.584;2022-08-18T01:33:42;15.50;99.90
43143;DHT22;28750;59.842;17.584;2022-08-18T01:36:13;15.50;99.90
43143;DHT22;28750;59.842;17.584;2022-08-18T01:38:41;15.50;99.90
43143;DHT22;28750;59.842;17.584;2022-08-18T01:41:09;15.40;99.90
43143;DHT22;28750;59.842;17.584;2022-08-18T01:43:37;15.30;99.90
43143;DHT22;28750;59.842;17.584;2022-08-18T01:46:05;15.20;99.90
43143;DHT22;28750;59.842;17.584;2022-08-18T01:48:34;15.30;99.90
43143;DHT22;28750;59.842;17.584;2022-08-18T01:51:03;15.30;99.90
43143;DHT22;28750;59.842;17.584;2022-08-18T01:53:31;15.30;99.90
43143;DHT22;28750;59.842;17.584;2022-08-18T01:55:58;15.30;99.90
43143;DHT22;28750;59.842;17.584;2022-08-18T01:58:25;15.40;99.90
43143;DHT22;28750;59.842;17.584;2022-08-18T02:00:56;15.40;99.90
43143;DHT22;28750;59.842;17.584;2022-08-18T02:03:35;15.50;99.90
43143;DHT22;28750;59.842;17.584;2022-08-18T02:06:07;15.50;99.90
43143;DHT22;28750;59.842;17.584;2022-08-18T02:08:35;15.50;99.90
43143;DHT22;28750;59.842;17.584;2022-08-18T02:11:03;15.40;99.90
43143;DHT22;28750;59.842;17.584;2022-08-18T02:13:31;15.40;99.90
43143;DHT22;28750;59.842;17.584;2022-08-18T02:15:59;15.30;99.90
43143;DHT22;28750;59.842;17.584;2022-08-18T02:18:30;15.30;99.90
43143;DHT22;28750;59.842;17.584;2022-08-18T02:21:07;15.30;99.90
43143;DHT22;28750;59.842;17.584;2022-08-18T02:23:34;15.30;99.90
43143;DHT22;28750;59.842;17.584;2022-08-18T02:26:06;15.20;99.90
43143;DHT22;28750;59.842;17.584;2022-08-18T02:28:33;15.20;99.90
43143;DHT22;28750;59.842;17.584;2022-08-18T02:31:09;15.20;99.90
43143;DHT22;28750;59.842;17.584;2022-08-18T02:33:37;15.10;99.90
43143;DHT22;28750;59.842;17.584;2022-08-18T02:36:05;15.20;99.90
43143;DHT22;28750;59.842;17.584;2022-08-18T02:38:32;15.20;99.90
43143;DHT22;28750;59.842;17.584;2022-08-18T02:41:03;15.20;99.90
43143;DHT22;28750;59.842;17.584;2022-08-18T02:43:31;15.10;99.90
43143;DHT22;28750;59.842;17.584;2022-08-18T02:45:58;14.90;99.90
43143;DHT22;28750;59.842;17.584;2022-08-18T02:48:25;14.80;99.90
43143;DHT22;28750;59.842;17.584;2022-08-18T02:51:15;14.90;99.90
43143;DHT22;28750;59.842;17.584;2022-08-18T02:53:44;14.90;99.90
43143;DHT22;28750;59.842;17.584;2022-08-18T02:56:16;14.80;99.90
43143;DHT22;28750;59.842;17.584;2022-08-18T02:59:12;14.70;99.90
43143;DHT22;28750;59.842;17.584;2022-08-18T03:01:42;14.70;99.90
43143;DHT22;28750;59.842;17.584;2022-08-18T03:04:12;14.80;99.90
43143;DHT22;28750;59.842;17.584;2022-08-18T03:06:40;14.80;99.90
43143;DHT22;28750;59.842;17.584;2022-08-18T03:09:11;14.80;99.90
43143;DHT22;28750;59.842;17.584;2022-08-18T03:11:39;14.70;99.90
43143;DHT22;28750;59.842;17.584;2022-08-18T03:14:06;14.70;99.90
43143;DHT22;28750;59.842;17.584;2022-08-18T03:16:34;14.70;99.90
43143;DHT22;28750;59.842;17.584;2022-08-18T03:19:03;14.70;99.90
43143;DHT22;28750;59.842;17.584;2022-08-18T03:21:31;14.60;99.90
43143;DHT22;28750;59.842;17.584;2022-08-18T03:24:00;14.60;99.90
43143;DHT22;28750;59.842;17.584;2022-08-18T03:26:28;14.60;99.90
43143;DHT22;28750;59.842;17.584;2022-08-18T03:28:56;14.60;99.90
43143;DHT22;28750;59.842;17.584;2022-08-18T03:31:26;14.70;99.90
43143;DHT22;28750;59.842;17.584;2022-08-18T03:33:54;14.70;99.90
43143;DHT22;28750;59.842;17.584;2022-08-18T03:36:24;14.60;99.90
43143;DHT22;28750;59.842;17.584;2022-08-18T03:38:52;14.50;99.90
43143;DHT22;28750;59.842;17.584;2022-08-18T03:41:25;14.50;99.90
43143;DHT22;28750;59.842;17.584;2022-08-18T03:43:52;14.50;99.90
43143;DHT22;28750;59.842;17.584;2022-08-18T03:46:20;14.60;99.90
43143;DHT22;28750;59.842;17.584;2022-08-18T03:48:49;14.60;99.90
43143;DHT22;28750;59.842;17.584;2022-08-18T03:51:22;14.70;99.90
43143;DHT22;28750;59.842;17.584;2022-08-18T03:53:55;14.90;99.90
43143;DHT22;28750;59.842;17.584;2022-08-18T03:56:25;15.00;99.90
43143;DHT22;28750;59.842;17.584;2022-08-18T03:58:55;14.90;99.90
43143;DHT22;28750;59.842;17.584;2022-08-18T04:01:27;14.90;99.90
43143;DHT22;28750;59.842;17.584;2022-08-18T04:03:58;15.00;99.90
43143;DHT22;28750;59.842;17.584;2022-08-18T04:06:35;15.00;99.90
43143;DHT22;28750;59.842;17.584;2022-08-18T04:09:05;15.10;99.90
43143;DHT22;28750;59.842;17.584;2022-08-18T04:11:34;15.10;99.90
43143;DHT22;28750;59.842;17.584;2022-08-18T04:14:03;15.20;99.90
43143;DHT22;28750;59.842;17.584;2022-08-18T04:16:31;15.30;99.90
43143;DHT22;28750;59.842;17.584;2022-08-18T04:18:59;15.30;99.90
43143;DHT22;28750;59.842;17.584;2022-08-18T04:21:33;15.30;99.90
43143;DHT22;28750;59.842;17.584;2022-08-18T04:24:02;15.40;99.90
43143;DHT22;28750;59.842;17.584;2022-08-18T04:26:32;15.40;99.90
43143;DHT22;28750;59.842;17.584;2022-08-18T04:28:59;15.50;99.90
43143;DHT22;28750;59.842;17.584;2022-08-18T04:31:28;15.60;99.90
43143;DHT22;28750;59.842;17.584;2022-08-18T04:33:58;15.60;99.90
43143;DHT22;28750;59.842;17.584;2022-08-18T04:36:25;15.60;99.90
43143;DHT22;28750;59.842;17.584;2022-08-18T04:38:53;15.80;99.90
43143;DHT22;28750;59.842;17.584;2022-08-18T04:41:21;15.80;99.90
43143;DHT22;28750;59.842;17.584;2022-08-18T04:44:05;15.80;99.90
43143;DHT22;28750;59.842;17.584;2022-08-18T04:46:40;15.90;99.90
43143;DHT22;28750;59.842;17.584;2022-08-18T04:49:08;16.00;99.90
43143;DHT22;28750;59.842;17.584;2022-08-18T04:51:40;16.00;99.90
43143;DHT22;28750;59.842;17.584;2022-08-18T04:54:08;16.00;99.90
43143;DHT22;28750;59.842;17.584;2022-08-18T04:56:37;16.00;99.90
43143;DHT22;28750;59.842;17.584;2022-08-18T04:59:10;16.10;99.90
43143;DHT22;28750;59.842;17.584;2022-08-18T05:01:41;16.20;99.90
43143;DHT22;28750;59.842;17.584;2022-08-18T05:04:10;16.40;99.90
43143;DHT22;28750;59.842;17.584;2022-08-18T05:06:38;16.50;99.90
43143;DHT22;28750;59.842;17.584;2022-08-18T05:09:08;16.50;99.90
43143;DHT22;28750;59.842;17.584;2022-08-18T05:11:36;16.60;99.90
43143;DHT22;28750;59.842;17.584;2022-08-18T05:14:06;16.70;99.90
43143;DHT22;28750;59.842;17.584;2022-08-18T05:16:35;16.70;99.90
43143;DHT22;28750;59.842;17.584;2022-08-18T05:19:03;16.80;99.90
43143;DHT22;28750;59.842;17.584;2022-08-18T05:21:31;16.80;99.90
43143;DHT22;28750;59.842;17.584;2022-08-18T05:23:59;16.80;99.90
43143;DHT22;28750;59.842;17.584;2022-08-18T05:26:26;16.90;99.90
43143;DHT22;28750;59.842;17.584;2022-08-18T05:28:53;16.90;99.90
43143;DHT22;28750;59.842;17.584;2022-08-18T05:31:23;17.00;99.90
43143;DHT22;28750;59.842;17.584;2022-08-18T05:33:51;17.10;99.90
43143;DHT22;28750;59.842;17.584;2022-08-18T05:36:42;17.10;99.90
43143;DHT22;28750;59.842;17.584;2022-08-18T05:41:45;17.20;99.90
43143;DHT22;28750;59.842;17.584;2022-08-18T05:44:25;17.30;99.90
43143;DHT22;28750;59.842;17.584;2022-08-18T05:46:58;17.50;99.90
43143;DHT22;28750;59.842;17.584;2022-08-18T05:49:27;17.50;99.90
43143;DHT22;28750;59.842;17.584;2022-08-18T05:52:00;17.50;99.90
43143;DHT22;28750;59.842;17.584;2022-08-18T05:54:37;17.50;99.90
43143;DHT22;28750;59.842;17.584;2022-08-18T05:57:24;17.50;99.90
43143;DHT22;28750;59.842;17.584;2022-08-18T05:59:53;17.50;99.90
43143;DHT22;28750;59.842;17.584;2022-08-18T06:05:35;17.70;99.90
43143;DHT22;28750;59.842;17.584;2022-08-18T06:08:08;17.70;99.90
43143;DHT22;28750;59.842;17.584;2022-08-18T06:10:37;17.70;99.90
43143;DHT22;28750;59.842;17.584;2022-08-18T06:13:07;17.70;99.90
43143;DHT22;28750;59.842;17.584;2022-08-18T06:15:41;17.90;99.90
43143;DHT22;28750;59.842;17.584;2022-08-18T06:18:25;17.90;99.90
43143;DHT22;28750;59.842;17.584;2022-08-18T06:29:21;18.30;99.90
43143;DHT22;28750;59.842;17.584;2022-08-18T06:40:41;18.60;99.90
43143;DHT22;28750;59.842;17.584;2022-08-18T06:43:11;18.70;99.90
43143;DHT22;28750;59.842;17.584;2022-08-18T06:45:41;18.70;99.90
43143;DHT22;28750;59.842;17.584;2022-08-18T06:48:47;18.70;99.90
43143;DHT22;28750;59.842;17.584;2022-08-18T06:51:18;18.70;99.90
43143;DHT22;28750;59.842;17.584;2022-08-18T06:53:59;18.70;99.90
43143;DHT22;28750;59.842;17.584;2022-08-18T07:01:45;19.00;99.90
43143;DHT22;28750;59.842;17.584;2022-08-18T07:04:43;19.20;99.90
43143;DHT22;28750;59.842;17.584;2022-08-18T07:07:28;19.60;99.90
43143;DHT22;28750;59.842;17.584;2022-08-18T07:09:56;19.40;99.90
43143;DHT22;28750;59.842;17.584;2022-08-18T07:12:26;19.50;99.90
43143;DHT22;28750;59.842;17.584;2022-08-18T07:14:57;19.50;99.90
43143;DHT22;28750;59.842;17.584;2022-08-18T07:17:30;19.50;99.90
43143;DHT22;28750;59.842;17.584;2022-08-18T07:20:01;19.50;99.90
43143;DHT22;28750;59.842;17.584;2022-08-18T07:22:31;19.50;99.90
43143;DHT22;28750;59.842;17.584;2022-08-18T07:25:00;19.50;99.90
43143;DHT22;28750;59.842;17.584;2022-08-18T07:27:47;19.40;99.90
43143;DHT22;28750;59.842;17.584;2022-08-18T07:35:48;19.80;99.90
43143;DHT22;28750;59.842;17.584;2022-08-18T07:38:37;19.90;99.90
43143;DHT22;28750;59.842;17.584;2022-08-18T07:41:29;20.00;99.90
43143;DHT22;28750;59.842;17.584;2022-08-18T07:49:31;20.50;99.90
43143;DHT22;28750;59.842;17.584;2022-08-18T07:52:06;20.80;99.90
43143;DHT22;28750;59.842;17.584;2022-08-18T07:57:13;21.10;99.90
43143;DHT22;28750;59.842;17.584;2022-08-18T08:02:45;22.50;1.00
43143;DHT22;28750;59.842;17.584;2022-08-18T08:09:10;23.70;99.90
43143;DHT22;28750;59.842;17.584;2022-08-18T08:16:59;23.50;99.90
43143;DHT22;28750;59.842;17.584;2022-08-18T08:22:30;23.80;99.60
43143;DHT22;28750;59.842;17.584;2022-08-18T08:30:29;23.80;99.90
43143;DHT22;28750;59.842;17.584;2022-08-18T08:33:39;24.10;99.90
43143;DHT22;28750;59.842;17.584;2022-08-18T08:36:18;23.70;99.90
43143;DHT22;28750;59.842;17.584;2022-08-18T08:39:04;23.70;99.90
43143;DHT22;28750;59.842;17.584;2022-08-18T08:41:37;24.20;99.90
43143;DHT22;28750;59.842;17.584;2022-08-18T08:44:30;24.20;1.00
43143;DHT22;28750;59.842;17.584;2022-08-18T08:49:57;24.00;38.40
43143;DHT22;28750;59.842;17.584;2022-08-18T08:52:37;24.00;1.00
43143;DHT22;28750;59.842;17.584;2022-08-18T08:55:14;24.20;73.20
43143;DHT22;28750;59.842;17.584;2022-08-18T09:00:39;24.00;1.00
43143;DHT22;28750;59.842;17.584;2022-08-18T09:12:11;23.90;99.90
43143;DHT22;28750;59.842;17.584;2022-08-18T09:14:59;23.80;99.90
43143;DHT22;28750;59.842;17.584;2022-08-18T09:23:03;23.60;99.90
43143;DHT22;28750;59.842;17.584;2022-08-18T09:25:53;23.60;99.90
43143;DHT22;28750;59.842;17.584;2022-08-18T09:28:41;24.30;99.90
43143;DHT22;28750;59.842;17.584;2022-08-18T09:31:15;24.80;15.20
43143;DHT22;28750;59.842;17.584;2022-08-18T09:34:03;25.20;99.90
43143;DHT22;28750;59.842;17.584;2022-08-18T09:37:02;24.70;12.70
43143;DHT22;28750;59.842;17.584;2022-08-18T09:39:36;25.60;99.90
43143;DHT22;28750;59.842;17.584;2022-08-18T09:42:46;26.10;53.70
43143;DHT22;28750;59.842;17.584;2022-08-18T09:48:31;26.40;1.00
43143;DHT22;28750;59.842;17.584;2022-08-18T10:04:38;26.10;99.90
43143;DHT22;28750;59.842;17.584;2022-08-18T10:09:58;27.50;99.90
43143;DHT22;28750;59.842;17.584;2022-08-18T10:12:35;26.80;99.90
43143;DHT22;28750;59.842;17.584;2022-08-18T10:18:19;27.30;99.90
43143;DHT22;28750;59.842;17.584;2022-08-18T10:21:17;26.90;99.90
43143;DHT22;28750;59.842;17.584;2022-08-18T10:23:53;27.80;99.90
43143;DHT22;28750;59.842;17.584;2022-08-18T10:34:47;28.30;92.60
43143;DHT22;28750;59.842;17.584;2022-08-18T10:37:47;27.70;99.90
43143;DHT22;28750;59.842;17.584;2022-08-18T10:40:20;28.40;99.90
43143;DHT22;28750;59.842;17.584;2022-08-18T10:45:34;27.80;99.90
43143;DHT22;28750;59.842;17.584;2022-08-18T10:48:28;27.60;99.90
43143;DHT22;28750;59.842;17.584;2022-08-18T10:50:58;27.90;99.90
43143;DHT22;28750;59.842;17.584;2022-08-18T10:56:32;27.70;99.90
43143;DHT22;28750;59.842;17.584;2022-08-18T11:04:34;27.60;99.90
43143;DHT22;28750;59.842;17.584;2022-08-18T11:07:20;27.80;99.90
43143;DHT22;28750;59.842;17.584;2022-08-18T11:09:51;28.30;99.90
43143;DHT22;28750;59.842;17.584;2022-08-18T11:15:20;26.60;99.90
43143;DHT22;28750;59.842;17.584;2022-08-18T11:20:29;27.40;99.90
43143;DHT22;28750;59.842;17.584;2022-08-18T11:22:59;27.90;99.90
43143;DHT22;28750;59.842;17.584;2022-08-18T11:25:31;27.80;99.90
43143;DHT22;28750;59.842;17.584;2022-08-18T11:28:00;27.30;99.90
43143;DHT22;28750;59.842;17.584;2022-08-18T11:30:33;27.10;99.90
43143;DHT22;28750;59.842;17.584;2022-08-18T11:33:02;26.60;99.90
43143;DHT22;28750;59.842;17.584;2022-08-18T11:35:34;26.80;1.00
43143;DHT22;28750;59.842;17.584;2022-08-18T11:38:12;26.50;99.90
43143;DHT22;28750;59.842;17.584;2022-08-18T11:40:50;26.80;99.90
43143;DHT22;28750;59.842;17.584;2022-08-18T11:43:32;26.60;99.90
43143;DHT22;28750;59.842;17.584;2022-08-18T11:48:49;26.70;1.00
43143;DHT22;28750;59.842;17.584;2022-08-18T11:51:33;26.10;99.90
43143;DHT22;28750;59.842;17.584;2022-08-18T11:56:37;26.00;1.00
43143;DHT22;28750;59.842;17.584;2022-08-18T12:01:54;27.30;1.00
43143;DHT22;28750;59.842;17.584;2022-08-18T12:04:36;28.80;99.90
43143;DHT22;28750;59.842;17.584;2022-08-18T12:07:06;29.50;99.90
43143;DHT22;28750;59.842;17.584;2022-08-18T12:09:48;29.80;99.90
43143;DHT22;28750;59.842;17.584;2022-08-18T12:12:21;29.70;88.00
43143;DHT22;28750;59.842;17.584;2022-08-18T12:17:29;29.80;99.90
43143;DHT22;28750;59.842;17.584;2022-08-18T12:19:57;29.60;92.00
43143;DHT22;28750;59.842;17.584;2022-08-18T12:22:27;29.10;28.20
43143;DHT22;28750;59.842;17.584;2022-08-18T12:24:56;29.10;99.90
43143;DHT22;28750;59.842;17.584;2022-08-18T12:27:27;28.30;55.80
43143;DHT22;28750;59.842;17.584;2022-08-18T12:29:56;28.10;99.90
43143;DHT22;28750;59.842;17.584;2022-08-18T12:32:26;28.20;99.90
43143;DHT22;28750;59.842;17.584;2022-08-18T12:34:54;28.00;99.90
43143;DHT22;28750;59.842;17.584;2022-08-18T12:37:24;28.50;99.90
43143;DHT22;28750;59.842;17.584;2022-08-18T12:39:52;28.80;99.90
43143;DHT22;28750;59.842;17.584;2022-08-18T12:42:20;28.90;99.90
43143;DHT22;28750;59.842;17.584;2022-08-18T12:44:47;28.50;99.90
43143;DHT22;28750;59.842;17.584;2022-08-18T12:47:24;28.60;99.90
43143;DHT22;28750;59.842;17.584;2022-08-18T12:49:52;28.70;99.90
43143;DHT22;28750;59.842;17.584;2022-08-18T12:52:19;28.80;99.90
43143;DHT22;28750;59.842;17.584;2022-08-18T12:54:47;29.00;99.90
43143;DHT22;28750;59.842;17.584;2022-08-18T12:57:23;28.60;99.90
43143;DHT22;28750;59.842;17.584;2022-08-18T12:59:50;27.50;99.90
43143;DHT22;28750;59.842;17.584;2022-08-18T13:02:19;27.50;99.90
43143;DHT22;28750;59.842;17.584;2022-08-18T13:04:46;27.40;99.90
43143;DHT22;28750;59.842;17.584;2022-08-18T13:07:14;27.70;99.90
43143;DHT22;28750;59.842;17.584;2022-08-18T13:09:42;28.00;99.90
43143;DHT22;28750;59.842;17.584;2022-08-18T13:12:10;27.70;99.90
43143;DHT22;28750;59.842;17.584;2022-08-18T13:14:38;27.60;99.90
43143;DHT22;28750;59.842;17.584;2022-08-18T13:17:05;27.40;99.90
43143;DHT22;28750;59.842;17.584;2022-08-18T13:19:32;27.40;99.90
43143;DHT22;28750;59.842;17.584;2022-08-18T13:21:59;26.90;99.90
43143;DHT22;28750;59.842;17.584;2022-08-18T13:24:26;26.90;99.90
43143;DHT22;28750;59.842;17.584;2022-08-18T13:26:53;26.50;99.90
43143;DHT22;28750;59.842;17.584;2022-08-18T13:29:21;26.90;1.00
43143;DHT22;28750;59.842;17.584;2022-08-18T13:31:48;27.50;99.90
43143;DHT22;28750;59.842;17.584;2022-08-18T13:34:20;27.00;99.90
43143;DHT22;28750;59.842;17.584;2022-08-18T13:36:47;26.70;99.90
43143;DHT22;28750;59.842;17.584;2022-08-18T13:39:19;26.60;1.00
43143;DHT22;28750;59.842;17.584;2022-08-18T13:41:48;27.10;1.00
43143;DHT22;28750;59.842;17.584;2022-08-18T13:44:18;26.90;99.90
43143;DHT22;28750;59.842;17.584;2022-08-18T13:46:48;26.70;61.50
43143;DHT22;28750;59.842;17.584;2022-08-18T13:49:21;26.90;1.00
43143;DHT22;28750;59.842;17.584;2022-08-18T13:51:51;26.80;1.00
43143;DHT22;28750;59.842;17.584;2022-08-18T13:54:32;26.60;1.00
43143;DHT22;28750;59.842;17.584;2022-08-18T13:57:01;26.30;26.80
43143;DHT22;28750;59.842;17.584;2022-08-18T13:59:29;26.00;1.00
43143;DHT22;28750;59.842;17.584;2022-08-18T14:01:59;25.60;88.60
43143;DHT22;28750;59.842;17.584;2022-08-18T14:04:27;25.70;99.90
43143;DHT22;28750;59.842;17.584;2022-08-18T14:06:54;25.60;99.90
43143;DHT22;28750;59.842;17.584;2022-08-18T14:09:22;25.80;99.90
43143;DHT22;28750;59.842;17.584;2022-08-18T14:11:49;25.90;99.90
43143;DHT22;28750;59.842;17.584;2022-08-18T14:14:16;25.70;99.90
43143;DHT22;28750;59.842;17.584;2022-08-18T14:16:43;25.70;99.90
43143;DHT22;28750;59.842;17.584;2022-08-18T14:19:09;25.60;99.90
43143;DHT22;28750;59.842;17.584;2022-08-18T14:21:54;25.60;99.90
43143;DHT22;28750;59.842;17.584;2022-08-18T14:24:40;25.40;99.90
43143;DHT22;28750;59.842;17.584;2022-08-18T14:27:34;25.20;99.90
43143;DHT22;28750;59.842;17.584;2022-08-18T14:30:05;25.00;99.90
43143;DHT22;28750;59.842;17.584;2022-08-18T14:32:33;25.00;1.00
43143;DHT22;28750;59.842;17.584;2022-08-18T14:35:02;24.70;99.90
43143;DHT22;28750;59.842;17.584;2022-08-18T14:37:30;24.70;1.00
43143;DHT22;28750;59.842;17.584;2022-08-18T14:39:57;24.60;1.00
43143;DHT22;28750;59.842;17.584;2022-08-18T14:42:24;24.50;1.00
43143;DHT22;28750;59.842;17.584;2022-08-18T14:44:51;24.40;99.90
43143;DHT22;28750;59.842;17.584;2022-08-18T14:47:20;24.10;99.90
43143;DHT22;28750;59.842;17.584;2022-08-18T14:49:47;24.00;99.90
43143;DHT22;28750;59.842;17.584;2022-08-18T14:52:14;24.10;99.90
43143;DHT22;28750;59.842;17.584;2022-08-18T14:54:41;24.20;99.90
43143;DHT22;28750;59.842;17.584;2022-08-18T14:57:08;24.20;99.90
43143;DHT22;28750;59.842;17.584;2022-08-18T14:59:37;24.10;99.90
43143;DHT22;28750;59.842;17.584;2022-08-18T15:02:06;24.00;99.90
43143;DHT22;28750;59.842;17.584;2022-08-18T15:04:34;24.10;99.90
43143;DHT22;28750;59.842;17.584;2022-08-18T15:07:01;24.00;99.90
43143;DHT22;28750;59.842;17.584;2022-08-18T15:09:28;24.00;99.90
43143;DHT22;28750;59.842;17.584;2022-08-18T15:11:57;24.00;99.90
43143;DHT22;28750;59.842;17.584;2022-08-18T15:14:29;24.00;64.10
43143;DHT22;28750;59.842;17.584;2022-08-18T15:16:58;23.90;99.90
43143;DHT22;28750;59.842;17.584;2022-08-18T15:19:25;24.00;99.90
43143;DHT22;28750;59.842;17.584;2022-08-18T15:21:52;24.00;20.90
43143;DHT22;28750;59.842;17.584;2022-08-18T15:24:40;23.80;99.90
43143;DHT22;28750;59.842;17.584;2022-08-18T15:27:36;23.70;1.00
43143;DHT22;28750;59.842;17.584;2022-08-18T15:30:12;23.80;99.90
43143;DHT22;28750;59.842;17.584;2022-08-18T15:32:45;23.70;99.90
43143;DHT22;28750;59.842;17.584;2022-08-18T15:35:13;23.60;99.90
43143;DHT22;28750;59.842;17.584;2022-08-18T15:37:42;23.40;99.90
43143;DHT22;28750;59.842;17.584;2022-08-18T15:40:16;23.40;99.90
43143;DHT22;28750;59.842;17.584;2022-08-18T15:42:50;23.40;99.90
43143;DHT22;28750;59.842;17.584;2022-08-18T15:45:30;23.30;99.90
43143;DHT22;28750;59.842;17.584;2022-08-18T15:48:00;23.20;1.00
43143;DHT22;28750;59.842;17.584;2022-08-18T15:50:28;23.10;1.00
43143;DHT22;28750;59.842;17.584;2022-08-18T15:52:58;23.00;99.90
43143;DHT22;28750;59.842;17.584;2022-08-18T15:55:27;23.00;99.90
43143;DHT22;28750;59.842;17.584;2022-08-18T15:57:55;23.00;99.90
43143;DHT22;28750;59.842;17.584;2022-08-18T16:00:25;23.00;99.90
43143;DHT22;28750;59.842;17.584;2022-08-18T16:02:56;22.90;99.90
43143;DHT22;28750;59.842;17.584;2022-08-18T16:05:39;22.90;1.00
43143;DHT22;28750;59.842;17.584;2022-08-18T16:08:08;22.70;1.00
43143;DHT22;28750;59.842;17.584;2022-08-18T16:10:38;22.60;1.00
43143;DHT22;28750;59.842;17.584;2022-08-18T16:13:06;22.40;1.00
43143;DHT22;28750;59.842;17.584;2022-08-18T16:15:37;22.40;37.40
43143;DHT22;28750;59.842;17.584;2022-08-18T16:18:06;22.10;23.90
43143;DHT22;28750;59.842;17.584;2022-08-18T16:20:34;22.10;67.70
43143;DHT22;28750;59.842;17.584;2022-08-18T16:23:01;22.00;99.90
43143;DHT22;28750;59.842;17.584;2022-08-18T16:25:30;22.00;99.90
43143;DHT22;28750;59.842;17.584;2022-08-18T16:27:58;21.90;99.90
43143;DHT22;28750;59.842;17.584;2022-08-18T16:30:26;21.80;99.90
43143;DHT22;28750;59.842;17.584;2022-08-18T16:32:54;21.80;99.90
43143;DHT22;28750;59.842;17.584;2022-08-18T16:35:22;21.70;99.90
43143;DHT22;28750;59.842;17.584;2022-08-18T16:37:49;21.60;99.90
43143;DHT22;28750;59.842;17.584;2022-08-18T16:40:17;21.60;99.90
43143;DHT22;28750;59.842;17.584;2022-08-18T16:42:45;21.60;99.90
43143;DHT22;28750;59.842;17.584;2022-08-18T16:45:13;21.50;99.90
43143;DHT22;28750;59.842;17.584;2022-08-18T16:47:40;21.40;99.90
43143;DHT22;28750;59.842;17.584;2022-08-18T16:50:11;21.30;99.90
43143;DHT22;28750;59.842;17.584;2022-08-18T16:52:39;21.30;99.90
43143;DHT22;28750;59.842;17.584;2022-08-18T16:55:09;21.20;99.90
43143;DHT22;28750;59.842;17.584;2022-08-18T16:57:41;21.10;1.00
43143;DHT22;28750;59.842;17.584;2022-08-18T17:00:27;21.10;1.00
43143;DHT22;28750;59.842;17.584;2022-08-18T17:03:12;21.00;1.00
43143;DHT22;28750;59.842;17.584;2022-08-18T17:06:08;20.80;1.00
43143;DHT22;28750;59.842;17.584;2022-08-18T17:08:36;20.80;1.00
43143;DHT22;28750;59.842;17.584;2022-08-18T17:11:06;20.70;1.00
43143;DHT22;28750;59.842;17.584;2022-08-18T17:13:34;20.70;1.00
43143;DHT22;28750;59.842;17.584;2022-08-18T17:16:02;20.60;1.00
43143;DHT22;28750;59.842;17.584;2022-08-18T17:18:29;20.60;1.00
43143;DHT22;28750;59.842;17.584;2022-08-18T17:21:04;20.50;1.00
43143;DHT22;28750;59.842;17.584;2022-08-18T17:23:32;20.50;1.00
43143;DHT22;28750;59.842;17.584;2022-08-18T17:25:59;20.50;1.00
43143;DHT22;28750;59.842;17.584;2022-08-18T17:28:35;20.40;26.80
43143;DHT22;28750;59.842;17.584;2022-08-18T17:31:06;20.40;40.60
43143;DHT22;28750;59.842;17.584;2022-08-18T17:33:37;20.40;6.10
43143;DHT22;28750;59.842;17.584;2022-08-18T17:36:10;20.30;12.10
43143;DHT22;28750;59.842;17.584;2022-08-18T17:38:57;20.40;34.50
43143;DHT22;28750;59.842;17.584;2022-08-18T17:41:25;20.30;38.20
43143;DHT22;28750;59.842;17.584;2022-08-18T17:43:56;20.20;37.00
43143;DHT22;28750;59.842;17.584;2022-08-18T17:46:36;20.00;70.80
43143;DHT22;28750;59.842;17.584;2022-08-18T17:49:24;20.00;84.40
43143;DHT22;28750;59.842;17.584;2022-08-18T17:52:15;19.90;95.60
43143;DHT22;28750;59.842;17.584;2022-08-18T17:54:48;19.90;99.90
43143;DHT22;28750;59.842;17.584;2022-08-18T17:57:25;19.80;99.90
43143;DHT22;28750;59.842;17.584;2022-08-18T18:02:29;19.70;99.90
43143;DHT22;28750;59.842;17.584;2022-08-18T18:05:00;19.60;99.90
43143;DHT22;28750;59.842;17.584;2022-08-18T18:08:17;19.60;99.90
43143;DHT22;28750;59.842;17.584;2022-08-18T18:10:33;19.70;99.90
43143;DHT22;28750;59.842;17.584;2022-08-18T18:15:33;19.50;99.90
43143;DHT22;28750;59.842;17.584;2022-08-18T18:18:35;19.40;99.90